createdAt,value
2023-02-26T00:01:40.989Z,0.75
2023-02-26T00:03:49.615Z,0.7
2023-02-26T00:05:54.961Z,0.7
2023-02-26T00:08:00.512Z,0.71
2023-02-26T00:10:06.123Z,0.69
2023-02-26T00:12:11.633Z,0.69
2023-02-26T00:14:17.556Z,0.7
2023-02-26T00:16:23.501Z,0.68
2023-02-26T00:18:29.161Z,0.69
2023-02-26T00:20:34.687Z,0.67
2023-02-26T00:22:40.115Z,0.67
2023-02-26T00:24:45.620Z,0.66
2023-02-26T00:26:50.946Z,0.65
2023-02-26T00:28:56.290Z,0.65
2023-02-26T00:31:01.628Z,0.66
2023-02-26T00:33:07.245Z,0.64
2023-02-26T00:35:12.360Z,0.67
2023-02-26T00:37:18.052Z,0.64
2023-02-26T00:39:23.317Z,0.6
2023-02-26T00:41:28.788Z,0.6
2023-02-26T00:43:34.398Z,0.58
2023-02-26T00:45:39.645Z,0.56
2023-02-26T00:47:45.266Z,0.56
2023-02-26T00:49:50.832Z,0.55
2023-02-26T00:51:56.445Z,0.55
2023-02-26T00:54:01.877Z,0.52
2023-02-26T00:56:07.595Z,0.53
2023-02-26T00:58:12.705Z,0.54
2023-02-26T01:00:18.684Z,0.52
2023-02-26T01:02:24.516Z,0.53
2023-02-26T01:04:29.974Z,0.5
2023-02-26T01:06:35.695Z,0.52
2023-02-26T01:08:41.234Z,0.52
2023-02-26T01:10:46.761Z,0.47
2023-02-26T01:12:51.745Z,0.5
2023-02-26T01:14:57.359Z,0.46
2023-02-26T01:17:02.875Z,0.44
2023-02-26T01:19:08.375Z,0.45
2023-02-26T01:21:13.752Z,0.43
2023-02-26T01:23:19.227Z,0.42
2023-02-26T01:25:25.017Z,0.39
2023-02-26T01:27:30.274Z,0.38
2023-02-26T01:29:35.809Z,0.37
2023-02-26T01:31:41.333Z,0.34
2023-02-26T01:33:47.771Z,0.35
2023-02-26T01:35:54.263Z,0.34
2023-02-26T01:38:00.158Z,0.33
2023-02-26T01:40:05.622Z,0.33
2023-02-26T01:42:10.905Z,0.31
2023-02-26T01:44:16.196Z,0.26
2023-02-26T01:46:21.853Z,0.26
2023-02-26T01:48:27.636Z,0.26
2023-02-26T01:50:33.431Z,0.2
2023-02-26T01:52:38.954Z,0.17
2023-02-26T01:54:44.242Z,0.22
2023-02-26T01:56:49.264Z,0.18
2023-02-26T01:58:54.572Z,0.17
2023-02-26T02:01:00.148Z,0.17
2023-02-26T02:03:05.459Z,0.2
2023-02-26T02:05:11.382Z,0.17
2023-02-26T02:07:16.739Z,0.18
2023-02-26T02:09:22.318Z,0.16
2023-02-26T02:11:27.599Z,0.12
2023-02-26T02:13:33.366Z,0.11
2023-02-26T02:15:38.766Z,0.12
2023-02-26T02:17:44.174Z,0.09
2023-02-26T02:19:49.463Z,0.11
2023-02-26T02:21:54.987Z,0.13
2023-02-26T02:24:01.224Z,0.07
2023-02-26T02:26:06.392Z,0.07
2023-02-26T02:28:11.737Z,0.06
2023-02-26T02:30:17.363Z,0.05
2023-02-26T02:32:22.687Z,0.01
2023-02-26T02:34:28.220Z,0.07
2023-02-26T02:36:33.599Z,0.06
2023-02-26T02:38:40.331Z,0.03
2023-02-26T02:40:46.131Z,-0.03
2023-02-26T02:42:52.141Z,-0.03
2023-02-26T02:44:57.805Z,-0.01
2023-02-26T02:47:03.321Z,-0.06
2023-02-26T02:49:09.170Z,-0.06
2023-02-26T02:51:14.639Z,-0.09
2023-02-26T02:53:20.153Z,-0.07
2023-02-26T02:55:25.180Z,-0.07
2023-02-26T02:57:30.541Z,-0.06
2023-02-26T02:59:36.027Z,-0.11
2023-02-26T03:01:41.565Z,-0.12
2023-02-26T03:03:46.991Z,-0.11
2023-02-26T03:05:52.550Z,-0.13
2023-02-26T03:07:58.019Z,-0.11
2023-02-26T03:10:03.456Z,-0.11
2023-02-26T03:12:08.872Z,-0.13
2023-02-26T03:14:14.474Z,-0.17
2023-02-26T03:16:20.315Z,-0.14
2023-02-26T03:18:26.893Z,-0.12
2023-02-26T03:20:32.381Z,-0.14
2023-02-26T03:22:37.988Z,-0.16
2023-02-26T03:24:43.316Z,-0.14
2023-02-26T03:26:48.645Z,-0.17
2023-02-26T03:28:53.906Z,-0.18
2023-02-26T03:30:59.090Z,-0.14
2023-02-26T03:33:04.855Z,-0.18
2023-02-26T03:35:10.328Z,-0.18
2023-02-26T03:37:15.890Z,-0.21
2023-02-26T03:39:21.266Z,-0.23
2023-02-26T03:41:26.504Z,-0.2
2023-02-26T03:43:32.342Z,-0.19
2023-02-26T03:45:38.064Z,-0.23
2023-02-26T03:47:43.687Z,-0.22
2023-02-26T03:49:49.114Z,-0.24
2023-02-26T03:51:54.606Z,-0.23
2023-02-26T03:54:00.200Z,-0.27
2023-02-26T03:56:05.513Z,-0.25
2023-02-26T03:58:10.815Z,-0.28
2023-02-26T04:00:15.821Z,-0.27
2023-02-26T04:02:21.049Z,-0.3
2023-02-26T04:04:26.526Z,-0.3
2023-02-26T04:06:32.165Z,-0.31
2023-02-26T04:08:37.522Z,-0.32
2023-02-26T04:10:42.765Z,-0.32
2023-02-26T04:12:47.851Z,-0.31
2023-02-26T04:14:53.334Z,-0.35
2023-02-26T04:16:58.793Z,-0.33
2023-02-26T04:19:04.315Z,-0.34
2023-02-26T04:21:10.119Z,-0.35
2023-02-26T04:23:15.916Z,-0.34
2023-02-26T04:25:21.391Z,-0.35
2023-02-26T04:27:26.801Z,-0.34
2023-02-26T04:29:32.300Z,-0.33
2023-02-26T04:31:37.834Z,-0.3
2023-02-26T04:33:43.572Z,-0.35
2023-02-26T04:35:48.652Z,-0.33
2023-02-26T04:37:54.154Z,-0.31
2023-02-26T04:39:59.374Z,-0.32
2023-02-26T04:42:04.605Z,-0.34
2023-02-26T04:44:10.293Z,-0.33
2023-02-26T04:46:15.576Z,-0.32
2023-02-26T04:48:21.270Z,-0.34
2023-02-26T04:50:26.310Z,-0.31
2023-02-26T04:52:31.894Z,-0.31
2023-02-26T04:54:37.577Z,-0.3
2023-02-26T04:56:42.988Z,-0.28
2023-02-26T04:58:48.316Z,-0.3
2023-02-26T05:00:53.877Z,-0.29
2023-02-26T05:02:59.285Z,-0.3
2023-02-26T05:05:04.638Z,-0.29
2023-02-26T05:07:10.090Z,-0.26
2023-02-26T05:09:15.956Z,-0.28
2023-02-26T05:11:21.324Z,-0.24
2023-02-26T05:13:27.288Z,-0.28
2023-02-26T05:15:32.485Z,-0.27
2023-02-26T05:17:37.646Z,-0.27
2023-02-26T05:19:43.101Z,-0.24
2023-02-26T05:21:48.515Z,-0.27
2023-02-26T05:23:53.782Z,-0.26
2023-02-26T05:25:59.212Z,-0.24
2023-02-26T05:28:04.542Z,-0.22
2023-02-26T05:30:10.034Z,-0.23
2023-02-26T05:32:15.514Z,-0.23
2023-02-26T05:34:21.090Z,-0.25
2023-02-26T05:36:26.839Z,-0.29
2023-02-26T05:38:32.794Z,-0.24
2023-02-26T05:40:38.286Z,-0.25
2023-02-26T05:42:43.655Z,-0.21
2023-02-26T05:44:49.268Z,-0.21
2023-02-26T05:46:55.065Z,-0.22
2023-02-26T05:49:00.608Z,-0.22
2023-02-26T05:51:06.074Z,-0.24
2023-02-26T05:53:11.767Z,-0.25
2023-02-26T05:55:17.061Z,-0.23
2023-02-26T05:57:22.124Z,-0.22
2023-02-26T05:59:27.796Z,-0.28
2023-02-26T06:01:33.197Z,-0.29
2023-02-26T06:03:39.207Z,-0.29
2023-02-26T06:05:44.710Z,-0.28
2023-02-26T06:07:49.990Z,-0.32
2023-02-26T06:09:55.234Z,-0.28
2023-02-26T06:12:00.419Z,-0.31
2023-02-26T06:14:05.772Z,-0.37
2023-02-26T06:16:11.325Z,-0.43
2023-02-26T06:18:16.831Z,-0.47
2023-02-26T06:20:22.078Z,-0.49
2023-02-26T06:22:27.701Z,-0.53
2023-02-26T06:24:33.065Z,-0.51
2023-02-26T06:26:38.311Z,-0.6
2023-02-26T06:28:43.695Z,-0.69
2023-02-26T06:30:49.330Z,-0.69
2023-02-26T06:32:55.060Z,-0.75
2023-02-26T06:35:00.159Z,-0.8
2023-02-26T06:37:06.922Z,-0.82
2023-02-26T06:39:12.437Z,-0.78
2023-02-26T06:41:17.831Z,-0.81
2023-02-26T06:43:23.314Z,-0.82
2023-02-26T06:45:30.062Z,-0.86
2023-02-26T06:47:35.945Z,-0.83
2023-02-26T06:49:43.211Z,-0.89
2023-02-26T06:51:48.807Z,-0.92
2023-02-26T06:53:55.041Z,-0.95
2023-02-26T06:56:00.888Z,-0.92
2023-02-26T06:58:06.561Z,-0.98
2023-02-26T07:00:12.114Z,-0.99
2023-02-26T07:02:18.118Z,-1.01
2023-02-26T07:04:23.907Z,-0.99
2023-02-26T07:06:30.347Z,-0.98
2023-02-26T07:08:36.750Z,-0.95
2023-02-26T07:10:43.585Z,-0.94
2023-02-26T07:12:48.992Z,-0.94
2023-02-26T07:14:55.282Z,-0.95
2023-02-26T07:17:01.521Z,-0.9
2023-02-26T07:19:07.981Z,-0.88
2023-02-26T07:21:14.322Z,-0.87
2023-02-26T07:23:20.399Z,-0.88
2023-02-26T07:25:27.012Z,-0.88
2023-02-26T07:27:33.277Z,-0.88
2023-02-26T07:29:39.564Z,-0.87
2023-02-26T07:31:45.822Z,-0.86
2023-02-26T07:33:52.556Z,-0.86
2023-02-26T07:35:59.726Z,-0.84
2023-02-26T07:38:05.674Z,-0.83
2023-02-26T07:40:11.431Z,-0.79
2023-02-26T07:42:17.400Z,-0.77
2023-02-26T07:44:23.669Z,-0.75
2023-02-26T07:46:29.587Z,-0.75
2023-02-26T07:48:40.024Z,-0.69
2023-02-26T07:50:46.699Z,-0.7
2023-02-26T07:52:52.750Z,-0.65
2023-02-26T07:54:58.957Z,-0.64
2023-02-26T07:57:05.406Z,-0.54
2023-02-26T07:59:11.780Z,-0.48
2023-02-26T08:01:17.626Z,-0.46
2023-02-26T08:03:24.231Z,-0.4
2023-02-26T08:05:30.359Z,-0.44
2023-02-26T08:07:36.299Z,-0.4
2023-02-26T08:09:42.181Z,-0.35
2023-02-26T08:11:47.981Z,-0.28
2023-02-26T08:13:53.753Z,-0.27
2023-02-26T08:16:00.209Z,-0.13
2023-02-26T08:18:06.703Z,-0.1
2023-02-26T08:20:12.713Z,-0.03
2023-02-26T08:22:18.814Z,-0.24
2023-02-26T08:24:24.924Z,-0.18
2023-02-26T08:26:31.183Z,-0.11
2023-02-26T08:28:37.543Z,-0.13
2023-02-26T08:30:44.521Z,-0.07
2023-02-26T08:32:51.013Z,-0.12
2023-02-26T08:34:57.122Z,-0.15
2023-02-26T08:37:03.278Z,-0.14
2023-02-26T08:39:09.928Z,-0.16
2023-02-26T08:41:16.613Z,-0.17
2023-02-26T08:43:23.969Z,-0.15
2023-02-26T08:45:30.305Z,-0.06
2023-02-26T08:47:39.516Z,-0.09
2023-02-26T08:50:00.905Z,-0.2
2023-02-26T08:52:07.298Z,-0.19
2023-02-26T08:54:13.578Z,-0.23
2023-02-26T08:56:21.701Z,-0.26
2023-02-26T08:58:31.875Z,-0.33
2023-02-26T09:00:38.609Z,-0.35
2023-02-26T09:02:45.157Z,-0.36
2023-02-26T09:04:51.798Z,-0.37
2023-02-26T09:06:58.064Z,-0.46
2023-02-26T09:09:04.431Z,-0.44
2023-02-26T09:11:10.948Z,-0.51
2023-02-26T09:13:17.413Z,-0.46
2023-02-26T09:15:23.803Z,-0.49
2023-02-26T09:17:30.325Z,-0.51
2023-02-26T09:19:36.434Z,-0.48
2023-02-26T09:21:42.614Z,-0.32
2023-02-26T09:23:49.562Z,-0.16
2023-02-26T09:25:56.178Z,-0.12
2023-02-26T09:28:02.609Z,-0.1
2023-02-26T09:30:09.631Z,-0.06
2023-02-26T09:32:16.912Z,-0.12
2023-02-26T09:34:24.445Z,-0.13
2023-02-26T09:36:30.645Z,-0.06
2023-02-26T09:38:37.432Z,-0.17
2023-02-26T09:40:44.370Z,-0.09
2023-02-26T09:42:50.796Z,0.01
2023-02-26T09:44:57.044Z,0.02
2023-02-26T09:47:03.228Z,0.05
2023-02-26T09:49:10.378Z,-0.09
2023-02-26T09:51:16.900Z,-0.52
2023-02-26T09:53:23.572Z,-0.49
2023-02-26T09:55:30.490Z,-0.45
2023-02-26T09:57:37.053Z,-0.28
2023-02-26T09:59:43.761Z,-0.31
2023-02-26T10:01:50.600Z,-0.3
2023-02-26T10:03:57.444Z,-0.24
2023-02-26T10:06:04.793Z,-0.33
2023-02-26T10:08:11.562Z,-0.21
2023-02-26T10:10:17.650Z,-0.17
2023-02-26T10:12:24.536Z,-0.3
2023-02-26T10:14:30.836Z,-0.17
2023-02-26T10:16:37.510Z,-0.04
2023-02-26T10:18:44.205Z,0
2023-02-26T10:20:50.283Z,0.09
2023-02-26T10:22:57.495Z,0.2
2023-02-26T10:25:03.778Z,0.1
2023-02-26T10:27:10.414Z,0.21
2023-02-26T10:29:17.058Z,0.05
2023-02-26T10:31:27.593Z,-0.15
2023-02-26T10:33:36.098Z,-0.43
2023-02-26T10:35:42.433Z,-0.4
2023-02-26T10:37:49.612Z,-0.35
2023-02-26T10:39:56.254Z,-0.3
2023-02-26T10:42:02.882Z,-0.24
2023-02-26T10:44:09.684Z,-0.25
2023-02-26T10:46:16.317Z,-0.21
2023-02-26T10:48:23.745Z,-0.12
2023-02-26T10:50:30.669Z,-0.05
2023-02-26T10:52:37.660Z,-0.08
2023-02-26T10:54:45.096Z,-0.1
2023-02-26T10:56:51.961Z,-0.02
2023-02-26T10:58:58.610Z,-0.05
2023-02-26T11:01:05.284Z,-0.01
2023-02-26T11:03:12.499Z,0
2023-02-26T11:05:20.329Z,0.05
2023-02-26T11:07:27.271Z,0.03
2023-02-26T11:09:38.133Z,0.01
2023-02-26T11:11:46.835Z,0.1
2023-02-26T11:13:54.044Z,0.07
2023-02-26T11:16:01.543Z,0.19
2023-02-26T11:18:08.622Z,0.18
2023-02-26T11:20:14.978Z,0.18
2023-02-26T11:22:22.114Z,0.19
2023-02-26T11:24:28.844Z,0.24
2023-02-26T11:26:35.745Z,0.22
2023-02-26T11:28:43.467Z,0.12
2023-02-26T11:30:51.088Z,0.12
2023-02-26T11:32:57.893Z,0.12
2023-02-26T11:35:04.869Z,-0.01
2023-02-26T11:37:12.513Z,0.05
2023-02-26T11:39:20.868Z,0
2023-02-26T11:41:28.503Z,0
2023-02-26T11:43:35.365Z,0.02
2023-02-26T11:45:46.257Z,0.12
2023-02-26T11:47:54.562Z,0.1
2023-02-26T11:50:00.773Z,0.09
2023-02-26T11:52:07.019Z,0.19
2023-02-26T11:54:15.285Z,0.25
2023-02-26T11:56:26.550Z,0.19
2023-02-26T11:58:37.532Z,0.27
2023-02-26T12:00:47.115Z,0.32
2023-02-26T12:02:55.090Z,0.42
2023-02-26T12:05:03.179Z,0.55
2023-02-26T12:07:10.549Z,0.53
2023-02-26T12:09:17.757Z,0.79
2023-02-26T12:11:27.110Z,0.74
2023-02-26T12:13:34.883Z,0.67
2023-02-26T12:15:43.073Z,0.66
2023-02-26T12:17:52.484Z,0.59
2023-02-26T12:20:02.274Z,0.67
2023-02-26T12:22:11.406Z,0.67
2023-02-26T12:24:18.995Z,0.69
2023-02-26T12:26:28.317Z,0.82
2023-02-26T12:28:35.299Z,0.67
2023-02-26T12:30:42.642Z,0.69
2023-02-26T12:32:53.820Z,0.74
2023-02-26T12:35:07.559Z,0.56
2023-02-26T12:37:22.119Z,0.6
2023-02-26T12:39:30.329Z,0.44
2023-02-26T12:41:42.545Z,0.5
2023-02-26T12:43:50.550Z,0.49
2023-02-26T12:45:59.332Z,0.42
2023-02-26T12:48:11.327Z,0.47
2023-02-26T12:50:19.391Z,0.39
2023-02-26T12:52:26.788Z,0.3
2023-02-26T12:54:44.013Z,0.42
2023-02-26T12:56:53.416Z,0.41
2023-02-26T12:59:02.664Z,0.47
2023-02-26T13:01:11.475Z,0.48
2023-02-26T13:03:21.155Z,0.63
2023-02-26T13:05:30.432Z,0.7
2023-02-26T13:07:39.142Z,0.59
2023-02-26T13:09:46.783Z,0.63
2023-02-26T13:12:00.524Z,0.7
2023-02-26T13:14:10.019Z,0.59
2023-02-26T13:16:20.733Z,0.52
2023-02-26T13:18:30.020Z,0.47
2023-02-26T13:20:38.326Z,0.37
2023-02-26T13:22:46.511Z,0.39
2023-02-26T13:24:53.755Z,0.39
2023-02-26T13:27:02.974Z,0.53
2023-02-26T13:29:11.373Z,0.54
2023-02-26T13:31:20.763Z,0.64
2023-02-26T13:33:35.560Z,0.89
2023-02-26T13:35:43.994Z,0.94
2023-02-26T13:37:58.592Z,1.06
2023-02-26T13:40:06.362Z,0.96
2023-02-26T13:42:13.667Z,0.87
2023-02-26T13:44:23.526Z,0.89
2023-02-26T13:46:31.318Z,0.83
2023-02-26T13:48:53.753Z,0.64
2023-02-26T13:51:02.622Z,0.76
2023-02-26T13:53:17.588Z,0.89
2023-02-26T13:55:28.481Z,0.93
2023-02-26T13:57:37.618Z,0.94
2023-02-26T13:59:45.610Z,0.96
2023-02-26T14:01:55.594Z,0.88
2023-02-26T14:04:04.792Z,0.93
2023-02-26T14:06:14.966Z,0.86
2023-02-26T14:08:22.531Z,0.83
2023-02-26T14:10:32.007Z,0.77
2023-02-26T14:12:41.472Z,0.9
2023-02-26T14:14:52.545Z,0.92
2023-02-26T14:17:01.945Z,1
2023-02-26T14:19:12.690Z,0.88
2023-02-26T14:21:21.477Z,0.95
2023-02-26T14:23:30.918Z,0.84
2023-02-26T14:25:40.706Z,0.95
2023-02-26T14:27:52.116Z,0.93
2023-02-26T14:30:01.821Z,1.03
2023-02-26T14:32:11.975Z,0.9
2023-02-26T14:34:21.544Z,0.86
2023-02-26T14:36:31.182Z,0.92
2023-02-26T14:38:37.997Z,0.9
2023-02-26T14:40:46.974Z,0.92
2023-02-26T14:43:01.191Z,0.84
2023-02-26T14:45:11.332Z,0.83
2023-02-26T14:47:23.327Z,0.87
2023-02-26T14:49:34.946Z,0.92
2023-02-26T14:51:44.597Z,1.03
2023-02-26T14:53:53.849Z,1.07
2023-02-26T14:56:02.309Z,1.02
2023-02-26T14:58:28.037Z,0.95
2023-02-26T15:00:41.811Z,0.92
2023-02-26T15:02:51.188Z,0.92
2023-02-26T15:05:06.785Z,0.83
2023-02-26T15:07:19.295Z,0.83
2023-02-26T15:09:26.793Z,0.82
2023-02-26T15:11:34.954Z,0.83
2023-02-26T15:13:43.963Z,0.79
2023-02-26T15:15:54.179Z,0.77
2023-02-26T15:18:04.830Z,0.71
2023-02-26T15:20:16.137Z,0.69
2023-02-26T15:22:24.638Z,0.66
2023-02-26T15:24:33.517Z,0.65
2023-02-26T15:26:44.639Z,0.63
2023-02-26T15:28:53.522Z,0.62
2023-02-26T15:31:03.267Z,0.57
2023-02-26T15:33:17.440Z,0.59
2023-02-26T15:35:27.039Z,0.62
2023-02-26T15:37:37.180Z,0.59
2023-02-26T15:39:50.894Z,0.59
2023-02-26T15:42:02.803Z,0.57
2023-02-26T15:44:11.939Z,0.54
2023-02-26T15:46:23.017Z,0.51
2023-02-26T15:48:34.950Z,0.47
2023-02-26T15:50:44.610Z,0.44
2023-02-26T15:52:54.285Z,0.41
2023-02-26T15:55:04.600Z,0.41
2023-02-26T15:57:16.610Z,0.36
2023-02-26T15:59:26.248Z,0.29
2023-02-26T16:01:36.498Z,0.25
2023-02-26T16:03:47.362Z,0.17
2023-02-26T16:05:57.304Z,0.09
2023-02-26T16:08:07.775Z,0.02
2023-02-26T16:10:17.344Z,-0.09
2023-02-26T16:12:32.604Z,-0.16
2023-02-26T16:14:47.418Z,-0.25
2023-02-26T16:16:56.865Z,-0.36
2023-02-26T16:19:07.735Z,-0.45
2023-02-26T16:21:15.674Z,-0.54
2023-02-26T16:23:25.760Z,-0.62
2023-02-26T16:25:34.733Z,-0.76
2023-02-26T16:27:48.380Z,-0.89
2023-02-26T16:29:58.554Z,-1.01
2023-02-26T16:32:06.891Z,-1.13
2023-02-26T16:34:18.252Z,-1.23
2023-02-26T16:36:31.203Z,-1.33
2023-02-26T16:38:40.559Z,-1.42
2023-02-26T16:40:50.131Z,-1.48
2023-02-26T16:43:05.397Z,-1.58
2023-02-26T16:45:18.599Z,-1.68
2023-02-26T16:47:32.427Z,-1.72
2023-02-26T16:49:42.948Z,-1.69
2023-02-26T16:51:54.265Z,-1.75
2023-02-26T16:54:07.487Z,-1.83
2023-02-26T16:56:16.933Z,-1.93
2023-02-26T16:58:27.866Z,-1.89
2023-02-26T17:00:44.568Z,-1.88
2023-02-26T17:03:12.894Z,-1.8
2023-02-26T17:05:29.125Z,-1.72
2023-02-26T17:07:38.518Z,-1.65
2023-02-26T17:09:49.413Z,-1.63
2023-02-26T17:11:59.981Z,-1.64
2023-02-26T17:14:11.605Z,-1.64
2023-02-26T17:16:29.182Z,-1.63
2023-02-26T17:18:44.004Z,-1.64
2023-02-26T17:20:55.722Z,-1.63
2023-02-26T17:23:07.275Z,-1.61
2023-02-26T17:25:16.659Z,-1.59
2023-02-26T17:27:26.481Z,-1.6
2023-02-26T17:29:38.179Z,-1.63
2023-02-26T17:31:48.140Z,-1.69
2023-02-26T17:34:07.186Z,-1.77
2023-02-26T17:36:16.871Z,-1.86
2023-02-26T17:38:35.095Z,-1.93
2023-02-26T17:40:55.377Z,-2.01
2023-02-26T17:43:09.615Z,-2.06
2023-02-26T17:45:23.377Z,-2
2023-02-26T17:47:33.958Z,-1.98
2023-02-26T17:49:48.269Z,-1.96
2023-02-26T17:52:02.023Z,-1.92
2023-02-26T17:54:16.679Z,-1.89
2023-02-26T17:56:27.057Z,-1.86
2023-02-26T17:58:42.005Z,-1.85
2023-02-26T18:00:57.976Z,-1.85
2023-02-26T18:03:10.692Z,-1.86
2023-02-26T18:05:19.948Z,-1.87
2023-02-26T18:07:33.394Z,-1.84
2023-02-26T18:09:45.804Z,-1.83
2023-02-26T18:11:53.863Z,-1.8
2023-02-26T18:14:03.844Z,-1.79
2023-02-26T18:16:14.751Z,-1.82
2023-02-26T18:18:23.584Z,-1.78
2023-02-26T18:20:32.907Z,-1.77
2023-02-26T18:22:45.346Z,-1.7
2023-02-26T18:24:59.859Z,-1.63
2023-02-26T18:27:09.584Z,-1.56
2023-02-26T18:29:21.456Z,-1.51
2023-02-26T18:31:36.112Z,-1.49
2023-02-26T18:33:50.561Z,-1.46
2023-02-26T18:36:09.299Z,-1.46
2023-02-26T18:38:18.909Z,-1.47
2023-02-26T18:40:29.210Z,-1.48
2023-02-26T18:42:38.204Z,-1.51
2023-02-26T18:44:54.316Z,-1.51
2023-02-26T18:47:05.849Z,-1.49
2023-02-26T18:49:28.654Z,-1.47
2023-02-26T18:51:41.470Z,-1.47
2023-02-26T18:53:54.177Z,-1.42
2023-02-26T18:56:06.511Z,-1.34
2023-02-26T18:58:17.789Z,-1.31
2023-02-26T19:00:29.845Z,-1.28
2023-02-26T19:02:43.757Z,-1.2
2023-02-26T19:04:54.571Z,-1.14
2023-02-26T19:07:11.261Z,-1.09
2023-02-26T19:09:20.215Z,-1.08
2023-02-26T19:11:32.381Z,-1.02
2023-02-26T19:13:47.457Z,-0.97
2023-02-26T19:16:11.408Z,-0.92
2023-02-26T19:18:23.254Z,-0.9
2023-02-26T19:20:33.848Z,-0.87
2023-02-26T19:22:44.070Z,-0.83
2023-02-26T19:24:55.890Z,-0.79
2023-02-26T19:27:14.444Z,-0.76
2023-02-26T19:29:28.909Z,-0.72
2023-02-26T19:31:47.572Z,-0.62
2023-02-26T19:34:00.181Z,-0.61
2023-02-26T19:36:11.795Z,-0.62
2023-02-26T19:38:22.463Z,-0.55
2023-02-26T19:40:32.046Z,-0.56
2023-02-26T19:42:43.109Z,-0.42
2023-02-26T19:44:51.958Z,-0.4
2023-02-26T19:47:06.250Z,-0.45
2023-02-26T19:49:16.885Z,-0.48
2023-02-26T19:51:24.674Z,-0.48
2023-02-26T19:53:35.583Z,-0.48
2023-02-26T19:55:45.577Z,-0.39
2023-02-26T19:58:01.443Z,-0.42
2023-02-26T20:00:12.940Z,-0.45
2023-02-26T20:02:24.724Z,-0.48
2023-02-26T20:04:39.013Z,-0.52
2023-02-26T20:06:48.422Z,-0.55
2023-02-26T20:09:04.126Z,-0.45
2023-02-26T20:11:12.888Z,-0.41
2023-02-26T20:13:25.031Z,-0.36
2023-02-26T20:15:38.460Z,-0.31
2023-02-26T20:17:49.734Z,-0.24
2023-02-26T20:19:59.778Z,-0.25
2023-02-26T20:22:08.444Z,-0.27
2023-02-26T20:24:22.613Z,-0.29
2023-02-26T20:26:36.852Z,-0.31
2023-02-26T20:28:46.559Z,-0.32
2023-02-26T20:30:59.490Z,-0.35
2023-02-26T20:33:13.577Z,-0.35
2023-02-26T20:35:22.483Z,-0.36
2023-02-26T20:37:37.520Z,-0.27
2023-02-26T20:39:48.973Z,-0.21
2023-02-26T20:42:04.276Z,-0.23
2023-02-26T20:44:13.192Z,-0.27
2023-02-26T20:46:25.021Z,-0.25
2023-02-26T20:48:35.245Z,-0.28
2023-02-26T20:50:47.348Z,-0.32
2023-02-26T20:52:57.822Z,-0.36
2023-02-26T20:55:08.723Z,-0.4
2023-02-26T20:57:19.569Z,-0.35
2023-02-26T20:59:30.665Z,-0.33
2023-02-26T21:01:40.329Z,-0.37
2023-02-26T21:03:49.947Z,-0.4
2023-02-26T21:05:58.611Z,-0.41
2023-02-26T21:08:06.404Z,-0.44
2023-02-26T21:10:14.852Z,-0.45
2023-02-26T21:12:28.393Z,-0.43
2023-02-26T21:14:39.452Z,-0.46
2023-02-26T21:16:47.415Z,-0.47
2023-02-26T21:18:57.174Z,-0.5
2023-02-26T21:21:08.145Z,-0.52
2023-02-26T21:23:16.371Z,-0.57
2023-02-26T21:25:27.281Z,-0.59
2023-02-26T21:27:37.060Z,-0.61
2023-02-26T21:29:43.142Z,-0.61
2023-02-26T21:31:51.858Z,-0.59
2023-02-26T21:34:17.218Z,-0.62
2023-02-26T21:36:38.931Z,-0.56
2023-02-26T21:38:46.842Z,-0.48
2023-02-26T21:40:54.396Z,-0.42
2023-02-26T21:43:02.187Z,-0.37
2023-02-26T21:45:08.688Z,-0.34
2023-02-26T21:47:16.334Z,-0.31
2023-02-26T21:49:23.449Z,-0.3
2023-02-26T21:51:29.468Z,-0.3
2023-02-26T21:53:35.478Z,-0.29
2023-02-26T21:55:41.307Z,-0.27
2023-02-26T21:57:47.805Z,-0.24
2023-02-26T21:59:54.536Z,-0.22
2023-02-26T22:02:01.355Z,-0.21
2023-02-26T22:04:08.206Z,-0.2
2023-02-26T22:06:14.453Z,-0.16
2023-02-26T22:08:20.294Z,-0.16
2023-02-26T22:10:26.352Z,-0.17
2023-02-26T22:12:31.784Z,-0.13
2023-02-26T22:14:37.321Z,-0.11
2023-02-26T22:16:43.698Z,-0.1
2023-02-26T22:18:50.181Z,-0.08
2023-02-26T22:20:55.446Z,-0.09
2023-02-26T22:23:01.192Z,-0.08
2023-02-26T22:25:07.010Z,-0.07
2023-02-26T22:27:12.616Z,-0.06
2023-02-26T22:29:19.344Z,-0.06
2023-02-26T22:31:25.783Z,-0.07
2023-02-26T22:33:32.751Z,-0.08
2023-02-26T22:35:39.021Z,-0.1
2023-02-26T22:37:44.676Z,-0.08
2023-02-26T22:39:50.404Z,-0.1
2023-02-26T22:41:56.055Z,-0.09
2023-02-26T22:44:01.818Z,-0.1
2023-02-26T22:46:07.664Z,-0.09
2023-02-26T22:48:13.356Z,-0.1
2023-02-26T22:50:18.704Z,-0.1
2023-02-26T22:52:24.311Z,-0.06
2023-02-26T22:54:30.079Z,-0.06
2023-02-26T22:56:35.489Z,-0.08
2023-02-26T22:58:41.175Z,-0.08
2023-02-26T23:00:46.682Z,-0.09
2023-02-26T23:02:52.174Z,-0.09
2023-02-26T23:04:57.852Z,-0.07
2023-02-26T23:07:03.591Z,-0.07
2023-02-26T23:09:09.220Z,-0.07
2023-02-26T23:11:14.648Z,-0.09
2023-02-26T23:13:20.369Z,-0.12
2023-02-26T23:15:26.411Z,-0.13
2023-02-26T23:17:32.151Z,-0.15
2023-02-26T23:19:37.366Z,-0.15
2023-02-26T23:21:42.949Z,-0.14
2023-02-26T23:23:48.215Z,-0.14
2023-02-26T23:25:53.758Z,-0.17
2023-02-26T23:27:59.428Z,-0.15
2023-02-26T23:30:04.739Z,-0.18
2023-02-26T23:32:10.150Z,-0.16
2023-02-26T23:34:16.084Z,-0.17
2023-02-26T23:36:21.321Z,-0.17
2023-02-26T23:38:27.070Z,-0.15
2023-02-26T23:40:32.527Z,-0.17
2023-02-26T23:42:37.899Z,-0.22
2023-02-26T23:44:43.785Z,-0.25
2023-02-26T23:46:49.084Z,-0.26
2023-02-26T23:48:54.570Z,-0.27
2023-02-26T23:51:00.115Z,-0.26
2023-02-26T23:53:06.121Z,-0.26
2023-02-26T23:55:11.697Z,-0.26
2023-02-26T23:57:16.945Z,-0.27
2023-02-26T23:59:22.371Z,-0.29
